sensor_id;sensor_type;location;lat;lon;timestamp;P1;durP1;ratioP1;P2;durP2;ratioP2
80175;SDS011;69501;42.124;24.722;2023-05-31T00:01:11;9.48;;;8.35;;
80175;SDS011;69501;42.124;24.722;2023-05-31T00:03:38;8.68;;;7.93;;
80175;SDS011;69501;42.124;24.722;2023-05-31T00:06:06;12.63;;;7.78;;
80175;SDS011;69501;42.124;24.722;2023-05-31T00:08:32;8.55;;;7.65;;
80175;SDS011;69501;42.124;24.722;2023-05-31T00:10:58;8.88;;;8.07;;
80175;SDS011;69501;42.124;24.722;2023-05-31T00:13:23;8.02;;;7.35;;
80175;SDS011;69501;42.124;24.722;2023-05-31T00:15:49;8.70;;;7.68;;
80175;SDS011;69501;42.124;24.722;2023-05-31T00:18:15;10.38;;;8.68;;
80175;SDS011;69501;42.124;24.722;2023-05-31T00:20:40;8.98;;;8.18;;
80175;SDS011;69501;42.124;24.722;2023-05-31T00:23:06;10.38;;;9.25;;
80175;SDS011;69501;42.124;24.722;2023-05-31T00:25:32;9.80;;;8.80;;
80175;SDS011;69501;42.124;24.722;2023-05-31T00:27:57;13.18;;;10.25;;
80175;SDS011;69501;42.124;24.722;2023-05-31T00:30:23;10.85;;;9.80;;
80175;SDS011;69501;42.124;24.722;2023-05-31T00:32:48;10.75;;;9.73;;
80175;SDS011;69501;42.124;24.722;2023-05-31T00:35:14;11.57;;;10.20;;
80175;SDS011;69501;42.124;24.722;2023-05-31T00:37:40;11.35;;;9.85;;
80175;SDS011;69501;42.124;24.722;2023-05-31T00:40:06;9.50;;;8.48;;
80175;SDS011;69501;42.124;24.722;2023-05-31T00:42:32;8.50;;;7.53;;
80175;SDS011;69501;42.124;24.722;2023-05-31T00:44:58;9.75;;;6.63;;
80175;SDS011;69501;42.124;24.722;2023-05-31T00:47:24;7.63;;;6.93;;
80175;SDS011;69501;42.124;24.722;2023-05-31T00:49:54;6.55;;;5.95;;
80175;SDS011;69501;42.124;24.722;2023-05-31T00:52:20;7.32;;;6.63;;
80175;SDS011;69501;42.124;24.722;2023-05-31T00:54:46;8.10;;;7.30;;
80175;SDS011;69501;42.124;24.722;2023-05-31T00:57:12;8.00;;;6.97;;
80175;SDS011;69501;42.124;24.722;2023-05-31T00:59:39;7.75;;;7.03;;
80175;SDS011;69501;42.124;24.722;2023-05-31T01:02:06;9.07;;;6.72;;
80175;SDS011;69501;42.124;24.722;2023-05-31T01:04:32;8.88;;;6.97;;
80175;SDS011;69501;42.124;24.722;2023-05-31T01:06:59;9.02;;;7.07;;
80175;SDS011;69501;42.124;24.722;2023-05-31T01:09:25;7.88;;;7.03;;
80175;SDS011;69501;42.124;24.722;2023-05-31T01:17:30;7.78;;;6.63;;
80175;SDS011;69501;42.124;24.722;2023-05-31T01:20:05;6.53;;;5.93;;
80175;SDS011;69501;42.124;24.722;2023-05-31T01:27:56;6.63;;;6.13;;
80175;SDS011;69501;42.124;24.722;2023-05-31T01:30:24;6.30;;;5.75;;
80175;SDS011;69501;42.124;24.722;2023-05-31T01:32:55;6.45;;;5.82;;
80175;SDS011;69501;42.124;24.722;2023-05-31T01:35:22;8.48;;;6.30;;
80175;SDS011;69501;42.124;24.722;2023-05-31T01:37:48;7.05;;;5.93;;
80175;SDS011;69501;42.124;24.722;2023-05-31T01:40:14;7.50;;;6.53;;
80175;SDS011;69501;42.124;24.722;2023-05-31T01:42:41;7.05;;;6.38;;
80175;SDS011;69501;42.124;24.722;2023-05-31T01:45:09;6.30;;;5.70;;
80175;SDS011;69501;42.124;24.722;2023-05-31T01:47:37;8.65;;;6.05;;
80175;SDS011;69501;42.124;24.722;2023-05-31T01:50:06;6.85;;;5.97;;
80175;SDS011;69501;42.124;24.722;2023-05-31T01:52:33;7.10;;;6.38;;
80175;SDS011;69501;42.124;24.722;2023-05-31T01:55:00;7.38;;;6.35;;
80175;SDS011;69501;42.124;24.722;2023-05-31T01:57:27;8.57;;;5.45;;
80175;SDS011;69501;42.124;24.722;2023-05-31T01:59:56;6.68;;;6.18;;
80175;SDS011;69501;42.124;24.722;2023-05-31T02:02:24;6.47;;;5.80;;
80175;SDS011;69501;42.124;24.722;2023-05-31T02:04:51;6.28;;;5.68;;
80175;SDS011;69501;42.124;24.722;2023-05-31T02:07:36;8.18;;;5.72;;
80175;SDS011;69501;42.124;24.722;2023-05-31T02:10:02;5.65;;;5.25;;
80175;SDS011;69501;42.124;24.722;2023-05-31T02:12:28;6.75;;;6.15;;
80175;SDS011;69501;42.124;24.722;2023-05-31T02:14:54;7.80;;;5.50;;
80175;SDS011;69501;42.124;24.722;2023-05-31T02:17:20;6.38;;;5.78;;
80175;SDS011;69501;42.124;24.722;2023-05-31T02:19:52;10.30;;;5.97;;
80175;SDS011;69501;42.124;24.722;2023-05-31T02:22:19;6.38;;;5.78;;
80175;SDS011;69501;42.124;24.722;2023-05-31T02:24:45;7.07;;;5.85;;
80175;SDS011;69501;42.124;24.722;2023-05-31T02:27:11;8.68;;;6.55;;
80175;SDS011;69501;42.124;24.722;2023-05-31T02:29:37;7.80;;;6.75;;
80175;SDS011;69501;42.124;24.722;2023-05-31T02:32:03;6.78;;;6.10;;
80175;SDS011;69501;42.124;24.722;2023-05-31T02:34:29;6.10;;;5.65;;
80175;SDS011;69501;42.124;24.722;2023-05-31T02:36:55;7.22;;;5.93;;
80175;SDS011;69501;42.124;24.722;2023-05-31T02:39:21;10.18;;;6.55;;
80175;SDS011;69501;42.124;24.722;2023-05-31T02:41:47;6.82;;;5.90;;
80175;SDS011;69501;42.124;24.722;2023-05-31T02:44:12;6.97;;;6.10;;
80175;SDS011;69501;42.124;24.722;2023-05-31T02:46:39;8.98;;;5.55;;
80175;SDS011;69501;42.124;24.722;2023-05-31T02:49:04;6.38;;;5.78;;
80175;SDS011;69501;42.124;24.722;2023-05-31T02:51:31;7.95;;;6.07;;
80175;SDS011;69501;42.124;24.722;2023-05-31T02:53:57;7.10;;;6.57;;
80175;SDS011;69501;42.124;24.722;2023-05-31T02:56:23;7.95;;;7.00;;
80175;SDS011;69501;42.124;24.722;2023-05-31T02:58:48;8.98;;;7.90;;
80175;SDS011;69501;42.124;24.722;2023-05-31T03:01:14;8.52;;;7.38;;
80175;SDS011;69501;42.124;24.722;2023-05-31T03:03:40;7.82;;;6.85;;
80175;SDS011;69501;42.124;24.722;2023-05-31T03:06:06;6.18;;;5.68;;
80175;SDS011;69501;42.124;24.722;2023-05-31T03:08:32;7.50;;;6.38;;
80175;SDS011;69501;42.124;24.722;2023-05-31T03:10:57;6.75;;;5.95;;
80175;SDS011;69501;42.124;24.722;2023-05-31T03:13:23;8.77;;;5.20;;
80175;SDS011;69501;42.124;24.722;2023-05-31T03:15:49;8.25;;;5.50;;
80175;SDS011;69501;42.124;24.722;2023-05-31T03:18:14;9.65;;;5.93;;
80175;SDS011;69501;42.124;24.722;2023-05-31T03:20:41;11.45;;;8.25;;
80175;SDS011;69501;42.124;24.722;2023-05-31T03:23:06;15.88;;;12.10;;
80175;SDS011;69501;42.124;24.722;2023-05-31T03:25:32;10.60;;;8.73;;
80175;SDS011;69501;42.124;24.722;2023-05-31T03:27:58;12.52;;;8.50;;
80175;SDS011;69501;42.124;24.722;2023-05-31T03:30:24;8.85;;;8.02;;
80175;SDS011;69501;42.124;24.722;2023-05-31T03:32:50;9.18;;;7.80;;
80175;SDS011;69501;42.124;24.722;2023-05-31T03:35:16;9.68;;;7.10;;
80175;SDS011;69501;42.124;24.722;2023-05-31T03:37:41;8.20;;;6.63;;
80175;SDS011;69501;42.124;24.722;2023-05-31T03:40:08;7.35;;;6.65;;
80175;SDS011;69501;42.124;24.722;2023-05-31T03:42:34;9.30;;;7.30;;
80175;SDS011;69501;42.124;24.722;2023-05-31T03:45:01;8.48;;;7.10;;
80175;SDS011;69501;42.124;24.722;2023-05-31T03:47:27;9.23;;;7.75;;
80175;SDS011;69501;42.124;24.722;2023-05-31T03:49:52;13.30;;;8.23;;
80175;SDS011;69501;42.124;24.722;2023-05-31T03:52:18;7.72;;;7.03;;
80175;SDS011;69501;42.124;24.722;2023-05-31T03:54:44;8.70;;;6.40;;
80175;SDS011;69501;42.124;24.722;2023-05-31T03:57:11;10.10;;;6.72;;
80175;SDS011;69501;42.124;24.722;2023-05-31T03:59:37;8.15;;;6.65;;
80175;SDS011;69501;42.124;24.722;2023-05-31T04:02:03;6.63;;;6.18;;
80175;SDS011;69501;42.124;24.722;2023-05-31T04:04:29;7.35;;;6.28;;
80175;SDS011;69501;42.124;24.722;2023-05-31T04:06:54;10.80;;;6.85;;
80175;SDS011;69501;42.124;24.722;2023-05-31T04:09:20;10.65;;;6.50;;
80175;SDS011;69501;42.124;24.722;2023-05-31T04:11:46;8.85;;;6.70;;
80175;SDS011;69501;42.124;24.722;2023-05-31T04:14:12;8.65;;;6.20;;
80175;SDS011;69501;42.124;24.722;2023-05-31T04:16:37;10.27;;;6.47;;
80175;SDS011;69501;42.124;24.722;2023-05-31T04:19:03;7.50;;;6.90;;
80175;SDS011;69501;42.124;24.722;2023-05-31T04:21:29;7.55;;;6.80;;
80175;SDS011;69501;42.124;24.722;2023-05-31T04:23:57;7.18;;;6.43;;
80175;SDS011;69501;42.124;24.722;2023-05-31T04:26:23;8.48;;;6.60;;
80175;SDS011;69501;42.124;24.722;2023-05-31T04:28:48;9.18;;;6.97;;
80175;SDS011;69501;42.124;24.722;2023-05-31T04:31:17;8.45;;;7.05;;
80175;SDS011;69501;42.124;24.722;2023-05-31T04:33:43;6.82;;;6.22;;
80175;SDS011;69501;42.124;24.722;2023-05-31T04:36:09;9.60;;;6.80;;
80175;SDS011;69501;42.124;24.722;2023-05-31T04:38:35;11.00;;;6.75;;
80175;SDS011;69501;42.124;24.722;2023-05-31T04:41:01;16.10;;;6.85;;
80175;SDS011;69501;42.124;24.722;2023-05-31T04:43:28;11.98;;;7.05;;
80175;SDS011;69501;42.124;24.722;2023-05-31T04:45:54;9.30;;;6.10;;
80175;SDS011;69501;42.124;24.722;2023-05-31T04:48:20;10.75;;;6.35;;
80175;SDS011;69501;42.124;24.722;2023-05-31T04:50:47;6.47;;;5.85;;
80175;SDS011;69501;42.124;24.722;2023-05-31T04:53:13;7.53;;;6.82;;
80175;SDS011;69501;42.124;24.722;2023-05-31T04:55:39;6.88;;;6.28;;
80175;SDS011;69501;42.124;24.722;2023-05-31T04:58:05;7.38;;;6.68;;
80175;SDS011;69501;42.124;24.722;2023-05-31T05:00:33;8.57;;;6.68;;
80175;SDS011;69501;42.124;24.722;2023-05-31T05:02:59;8.43;;;6.75;;
80175;SDS011;69501;42.124;24.722;2023-05-31T05:05:26;9.95;;;6.22;;
80175;SDS011;69501;42.124;24.722;2023-05-31T05:07:52;7.40;;;6.38;;
80175;SDS011;69501;42.124;24.722;2023-05-31T05:10:17;10.63;;;6.38;;
80175;SDS011;69501;42.124;24.722;2023-05-31T05:12:43;8.93;;;6.43;;
80175;SDS011;69501;42.124;24.722;2023-05-31T05:15:09;8.05;;;6.15;;
80175;SDS011;69501;42.124;24.722;2023-05-31T05:17:35;7.70;;;6.05;;
80175;SDS011;69501;42.124;24.722;2023-05-31T05:20:01;7.18;;;6.15;;
80175;SDS011;69501;42.124;24.722;2023-05-31T05:22:30;7.45;;;6.05;;
80175;SDS011;69501;42.124;24.722;2023-05-31T05:24:55;7.00;;;5.68;;
80175;SDS011;69501;42.124;24.722;2023-05-31T05:27:21;7.13;;;6.32;;
80175;SDS011;69501;42.124;24.722;2023-05-31T05:29:47;7.78;;;6.35;;
80175;SDS011;69501;42.124;24.722;2023-05-31T05:32:13;6.90;;;6.22;;
80175;SDS011;69501;42.124;24.722;2023-05-31T05:34:38;7.57;;;6.72;;
80175;SDS011;69501;42.124;24.722;2023-05-31T05:37:04;9.07;;;5.88;;
80175;SDS011;69501;42.124;24.722;2023-05-31T05:39:30;8.48;;;6.00;;
80175;SDS011;69501;42.124;24.722;2023-05-31T05:41:56;6.63;;;5.82;;
80175;SDS011;69501;42.124;24.722;2023-05-31T05:44:22;10.20;;;7.60;;
80175;SDS011;69501;42.124;24.722;2023-05-31T05:46:47;7.47;;;6.10;;
80175;SDS011;69501;42.124;24.722;2023-05-31T05:49:13;10.93;;;6.97;;
80175;SDS011;69501;42.124;24.722;2023-05-31T05:51:39;7.80;;;6.35;;
80175;SDS011;69501;42.124;24.722;2023-05-31T05:54:04;8.48;;;6.30;;
80175;SDS011;69501;42.124;24.722;2023-05-31T05:56:30;11.73;;;6.07;;
80175;SDS011;69501;42.124;24.722;2023-05-31T05:58:56;6.97;;;6.38;;
80175;SDS011;69501;42.124;24.722;2023-05-31T06:01:22;9.57;;;6.13;;
80175;SDS011;69501;42.124;24.722;2023-05-31T06:03:52;11.18;;;6.10;;
80175;SDS011;69501;42.124;24.722;2023-05-31T06:06:18;10.25;;;6.30;;
80175;SDS011;69501;42.124;24.722;2023-05-31T06:08:46;7.13;;;5.80;;
80175;SDS011;69501;42.124;24.722;2023-05-31T06:11:12;11.45;;;6.25;;
80175;SDS011;69501;42.124;24.722;2023-05-31T06:13:42;8.88;;;6.32;;
80175;SDS011;69501;42.124;24.722;2023-05-31T06:16:08;9.18;;;6.90;;
80175;SDS011;69501;42.124;24.722;2023-05-31T06:18:33;10.68;;;6.47;;
80175;SDS011;69501;42.124;24.722;2023-05-31T06:20:59;12.88;;;6.55;;
80175;SDS011;69501;42.124;24.722;2023-05-31T06:23:25;10.88;;;6.75;;
80175;SDS011;69501;42.124;24.722;2023-05-31T06:25:51;10.68;;;6.80;;
80175;SDS011;69501;42.124;24.722;2023-05-31T06:28:17;8.45;;;7.32;;
80175;SDS011;69501;42.124;24.722;2023-05-31T06:30:43;19.08;;;8.30;;
80175;SDS011;69501;42.124;24.722;2023-05-31T06:33:09;15.70;;;8.60;;
80175;SDS011;69501;42.124;24.722;2023-05-31T06:35:34;11.68;;;7.30;;
80175;SDS011;69501;42.124;24.722;2023-05-31T06:38:00;9.95;;;6.68;;
80175;SDS011;69501;42.124;24.722;2023-05-31T06:40:28;9.57;;;6.65;;
80175;SDS011;69501;42.124;24.722;2023-05-31T06:42:54;10.95;;;6.18;;
80175;SDS011;69501;42.124;24.722;2023-05-31T06:45:20;7.78;;;6.47;;
80175;SDS011;69501;42.124;24.722;2023-05-31T06:47:46;9.90;;;8.88;;
80175;SDS011;69501;42.124;24.722;2023-05-31T06:50:11;13.18;;;7.53;;
80175;SDS011;69501;42.124;24.722;2023-05-31T06:52:38;10.82;;;7.45;;
80175;SDS011;69501;42.124;24.722;2023-05-31T06:55:05;11.23;;;7.45;;
80175;SDS011;69501;42.124;24.722;2023-05-31T06:57:31;8.15;;;6.80;;
80175;SDS011;69501;42.124;24.722;2023-05-31T06:59:57;10.00;;;7.28;;
80175;SDS011;69501;42.124;24.722;2023-05-31T07:02:22;9.45;;;6.82;;
80175;SDS011;69501;42.124;24.722;2023-05-31T07:04:48;8.40;;;6.00;;
80175;SDS011;69501;42.124;24.722;2023-05-31T07:07:15;9.43;;;6.03;;
80175;SDS011;69501;42.124;24.722;2023-05-31T07:09:40;11.38;;;6.95;;
80175;SDS011;69501;42.124;24.722;2023-05-31T07:12:06;6.70;;;6.03;;
80175;SDS011;69501;42.124;24.722;2023-05-31T07:14:32;6.72;;;6.03;;
80175;SDS011;69501;42.124;24.722;2023-05-31T07:16:57;7.53;;;6.63;;
80175;SDS011;69501;42.124;24.722;2023-05-31T07:19:23;11.18;;;7.25;;
80175;SDS011;69501;42.124;24.722;2023-05-31T07:21:49;10.00;;;6.43;;
80175;SDS011;69501;42.124;24.722;2023-05-31T07:24:14;9.48;;;6.03;;
80175;SDS011;69501;42.124;24.722;2023-05-31T07:26:40;8.73;;;5.97;;
80175;SDS011;69501;42.124;24.722;2023-05-31T07:29:06;6.68;;;5.43;;
80175;SDS011;69501;42.124;24.722;2023-05-31T07:31:31;8.27;;;6.07;;
80175;SDS011;69501;42.124;24.722;2023-05-31T07:33:57;9.50;;;5.82;;
80175;SDS011;69501;42.124;24.722;2023-05-31T07:36:23;6.20;;;5.57;;
80175;SDS011;69501;42.124;24.722;2023-05-31T07:38:49;10.23;;;6.47;;
80175;SDS011;69501;42.124;24.722;2023-05-31T07:41:16;8.02;;;6.20;;
80175;SDS011;69501;42.124;24.722;2023-05-31T07:43:42;8.80;;;6.53;;
80175;SDS011;69501;42.124;24.722;2023-05-31T07:46:09;5.47;;;5.07;;
80175;SDS011;69501;42.124;24.722;2023-05-31T07:48:35;7.28;;;5.80;;
80175;SDS011;69501;42.124;24.722;2023-05-31T07:51:01;7.22;;;6.18;;
80175;SDS011;69501;42.124;24.722;2023-05-31T07:53:27;8.68;;;6.35;;
80175;SDS011;69501;42.124;24.722;2023-05-31T07:55:52;11.73;;;6.13;;
80175;SDS011;69501;42.124;24.722;2023-05-31T07:58:18;7.00;;;5.30;;
80175;SDS011;69501;42.124;24.722;2023-05-31T08:00:44;11.07;;;5.68;;
80175;SDS011;69501;42.124;24.722;2023-05-31T08:03:10;9.38;;;6.05;;
80175;SDS011;69501;42.124;24.722;2023-05-31T08:05:36;9.02;;;6.93;;
80175;SDS011;69501;42.124;24.722;2023-05-31T08:08:01;9.93;;;6.53;;
80175;SDS011;69501;42.124;24.722;2023-05-31T08:10:27;7.70;;;6.28;;
80175;SDS011;69501;42.124;24.722;2023-05-31T08:12:55;7.80;;;6.15;;
80175;SDS011;69501;42.124;24.722;2023-05-31T08:15:20;9.35;;;5.53;;
80175;SDS011;69501;42.124;24.722;2023-05-31T08:17:46;7.03;;;5.50;;
80175;SDS011;69501;42.124;24.722;2023-05-31T08:20:12;8.60;;;5.85;;
80175;SDS011;69501;42.124;24.722;2023-05-31T08:22:44;10.40;;;5.50;;
80175;SDS011;69501;42.124;24.722;2023-05-31T08:25:10;7.28;;;5.85;;
80175;SDS011;69501;42.124;24.722;2023-05-31T08:27:40;7.82;;;5.97;;
80175;SDS011;69501;42.124;24.722;2023-05-31T08:30:08;5.53;;;5.03;;
80175;SDS011;69501;42.124;24.722;2023-05-31T08:32:34;9.63;;;6.03;;
80175;SDS011;69501;42.124;24.722;2023-05-31T08:35:00;6.05;;;4.90;;
80175;SDS011;69501;42.124;24.722;2023-05-31T08:37:26;6.43;;;5.50;;
80175;SDS011;69501;42.124;24.722;2023-05-31T08:39:52;5.93;;;5.43;;
80175;SDS011;69501;42.124;24.722;2023-05-31T08:45:15;7.45;;;5.72;;
80175;SDS011;69501;42.124;24.722;2023-05-31T08:47:43;6.15;;;5.25;;
80175;SDS011;69501;42.124;24.722;2023-05-31T08:50:11;7.63;;;5.60;;
80175;SDS011;69501;42.124;24.722;2023-05-31T08:52:37;5.45;;;4.85;;
80175;SDS011;69501;42.124;24.722;2023-05-31T08:55:03;6.80;;;5.53;;
80175;SDS011;69501;42.124;24.722;2023-05-31T08:57:30;8.35;;;6.10;;
80175;SDS011;69501;42.124;24.722;2023-05-31T08:59:57;9.50;;;6.45;;
80175;SDS011;69501;42.124;24.722;2023-05-31T09:02:23;6.65;;;5.80;;
80175;SDS011;69501;42.124;24.722;2023-05-31T09:04:50;7.68;;;5.88;;
80175;SDS011;69501;42.124;24.722;2023-05-31T09:07:15;9.55;;;6.13;;
80175;SDS011;69501;42.124;24.722;2023-05-31T09:09:41;7.60;;;5.90;;
80175;SDS011;69501;42.124;24.722;2023-05-31T09:12:07;7.45;;;5.55;;
80175;SDS011;69501;42.124;24.722;2023-05-31T09:14:33;6.03;;;5.43;;
80175;SDS011;69501;42.124;24.722;2023-05-31T09:16:59;8.07;;;6.22;;
80175;SDS011;69501;42.124;24.722;2023-05-31T09:19:25;7.18;;;6.47;;
80175;SDS011;69501;42.124;24.722;2023-05-31T09:21:51;7.15;;;6.40;;
80175;SDS011;69501;42.124;24.722;2023-05-31T09:24:17;10.18;;;6.63;;
80175;SDS011;69501;42.124;24.722;2023-05-31T09:26:50;10.77;;;6.07;;
80175;SDS011;69501;42.124;24.722;2023-05-31T09:29:17;5.88;;;5.47;;
80175;SDS011;69501;42.124;24.722;2023-05-31T09:31:44;7.25;;;6.05;;
80175;SDS011;69501;42.124;24.722;2023-05-31T09:34:23;6.65;;;5.72;;
80175;SDS011;69501;42.124;24.722;2023-05-31T09:37:00;5.90;;;5.47;;
80175;SDS011;69501;42.124;24.722;2023-05-31T09:39:26;6.67;;;6.00;;
80175;SDS011;69501;42.124;24.722;2023-05-31T09:41:52;9.05;;;5.85;;
80175;SDS011;69501;42.124;24.722;2023-05-31T09:44:18;7.07;;;6.38;;
80175;SDS011;69501;42.124;24.722;2023-05-31T09:46:47;8.13;;;6.50;;
80175;SDS011;69501;42.124;24.722;2023-05-31T09:49:12;7.82;;;6.15;;
80175;SDS011;69501;42.124;24.722;2023-05-31T09:51:38;7.43;;;6.70;;
80175;SDS011;69501;42.124;24.722;2023-05-31T09:54:11;8.75;;;6.47;;
80175;SDS011;69501;42.124;24.722;2023-05-31T09:56:39;10.00;;;5.75;;
80175;SDS011;69501;42.124;24.722;2023-05-31T09:59:06;9.23;;;6.68;;
80175;SDS011;69501;42.124;24.722;2023-05-31T10:01:33;11.82;;;6.22;;
80175;SDS011;69501;42.124;24.722;2023-05-31T10:04:02;14.43;;;6.40;;
80175;SDS011;69501;42.124;24.722;2023-05-31T10:06:29;9.55;;;6.57;;
80175;SDS011;69501;42.124;24.722;2023-05-31T10:09:01;8.48;;;7.13;;
80175;SDS011;69501;42.124;24.722;2023-05-31T10:11:30;6.85;;;6.20;;
80175;SDS011;69501;42.124;24.722;2023-05-31T10:13:59;10.90;;;7.40;;
80175;SDS011;69501;42.124;24.722;2023-05-31T10:16:28;6.43;;;5.65;;
80175;SDS011;69501;42.124;24.722;2023-05-31T10:19:01;8.40;;;6.68;;
80175;SDS011;69501;42.124;24.722;2023-05-31T10:21:31;12.55;;;6.57;;
80175;SDS011;69501;42.124;24.722;2023-05-31T10:24:06;12.35;;;6.13;;
80175;SDS011;69501;42.124;24.722;2023-05-31T10:29:52;11.00;;;6.80;;
80175;SDS011;69501;42.124;24.722;2023-05-31T10:32:25;7.40;;;6.15;;
80175;SDS011;69501;42.124;24.722;2023-05-31T10:34:53;9.00;;;6.30;;
80175;SDS011;69501;42.124;24.722;2023-05-31T10:37:21;7.93;;;6.15;;
80175;SDS011;69501;42.124;24.722;2023-05-31T10:42:33;6.90;;;6.20;;
80175;SDS011;69501;42.124;24.722;2023-05-31T10:50:35;7.45;;;5.38;;
80175;SDS011;69501;42.124;24.722;2023-05-31T10:53:15;6.28;;;5.68;;
80175;SDS011;69501;42.124;24.722;2023-05-31T10:55:41;9.85;;;5.63;;
80175;SDS011;69501;42.124;24.722;2023-05-31T10:58:24;11.65;;;5.82;;
80175;SDS011;69501;42.124;24.722;2023-05-31T11:00:52;6.25;;;5.70;;
80175;SDS011;69501;42.124;24.722;2023-05-31T11:03:22;7.70;;;5.38;;
80175;SDS011;69501;42.124;24.722;2023-05-31T11:05:56;6.95;;;5.45;;
80175;SDS011;69501;42.124;24.722;2023-05-31T11:08:29;10.18;;;6.13;;
80175;SDS011;69501;42.124;24.722;2023-05-31T11:13:56;6.75;;;6.03;;
80175;SDS011;69501;42.124;24.722;2023-05-31T11:16:31;6.47;;;5.88;;
80175;SDS011;69501;42.124;24.722;2023-05-31T11:19:01;7.20;;;5.60;;
80175;SDS011;69501;42.124;24.722;2023-05-31T11:26:58;10.40;;;5.30;;
80175;SDS011;69501;42.124;24.722;2023-05-31T11:32:11;10.55;;;5.40;;
80175;SDS011;69501;42.124;24.722;2023-05-31T11:35:01;5.80;;;5.30;;
80175;SDS011;69501;42.124;24.722;2023-05-31T11:40:00;8.82;;;5.40;;
80175;SDS011;69501;42.124;24.722;2023-05-31T11:42:31;11.63;;;5.20;;
80175;SDS011;69501;42.124;24.722;2023-05-31T11:44:57;7.32;;;6.00;;
80175;SDS011;69501;42.124;24.722;2023-05-31T11:47:30;8.65;;;5.22;;
80175;SDS011;69501;42.124;24.722;2023-05-31T11:50:05;5.90;;;5.40;;
80175;SDS011;69501;42.124;24.722;2023-05-31T11:52:31;7.18;;;5.88;;
80175;SDS011;69501;42.124;24.722;2023-05-31T11:55:03;8.43;;;5.32;;
80175;SDS011;69501;42.124;24.722;2023-05-31T11:57:30;5.97;;;5.47;;
80175;SDS011;69501;42.124;24.722;2023-05-31T12:00:04;6.90;;;5.25;;
80175;SDS011;69501;42.124;24.722;2023-05-31T12:02:35;7.45;;;5.13;;
80175;SDS011;69501;42.124;24.722;2023-05-31T12:05:01;7.68;;;4.95;;
80175;SDS011;69501;42.124;24.722;2023-05-31T12:07:28;7.05;;;5.10;;
80175;SDS011;69501;42.124;24.722;2023-05-31T12:09:54;6.65;;;4.90;;
80175;SDS011;69501;42.124;24.722;2023-05-31T12:12:19;5.47;;;4.97;;
80175;SDS011;69501;42.124;24.722;2023-05-31T12:14:51;4.95;;;4.38;;
80175;SDS011;69501;42.124;24.722;2023-05-31T12:17:18;6.13;;;4.85;;
80175;SDS011;69501;42.124;24.722;2023-05-31T12:19:46;7.30;;;5.03;;
80175;SDS011;69501;42.124;24.722;2023-05-31T12:22:13;6.95;;;5.15;;
80175;SDS011;69501;42.124;24.722;2023-05-31T12:24:47;5.63;;;5.15;;
80175;SDS011;69501;42.124;24.722;2023-05-31T12:27:15;5.57;;;5.00;;
80175;SDS011;69501;42.124;24.722;2023-05-31T12:29:41;8.07;;;5.45;;
80175;SDS011;69501;42.124;24.722;2023-05-31T12:32:07;5.88;;;5.05;;
80175;SDS011;69501;42.124;24.722;2023-05-31T12:34:34;6.07;;;5.35;;
80175;SDS011;69501;42.124;24.722;2023-05-31T12:37:07;6.22;;;4.78;;
80175;SDS011;69501;42.124;24.722;2023-05-31T12:39:34;5.80;;;5.30;;
80175;SDS011;69501;42.124;24.722;2023-05-31T12:42:01;7.72;;;5.07;;
80175;SDS011;69501;42.124;24.722;2023-05-31T12:44:30;5.72;;;5.00;;
80175;SDS011;69501;42.124;24.722;2023-05-31T12:47:04;7.47;;;5.25;;
80175;SDS011;69501;42.124;24.722;2023-05-31T12:49:33;5.03;;;4.60;;
80175;SDS011;69501;42.124;24.722;2023-05-31T12:52:06;6.80;;;5.05;;
80175;SDS011;69501;42.124;24.722;2023-05-31T12:54:34;7.43;;;5.43;;
80175;SDS011;69501;42.124;24.722;2023-05-31T12:57:04;8.52;;;6.90;;
80175;SDS011;69501;42.124;24.722;2023-05-31T12:59:34;9.57;;;5.88;;
80175;SDS011;69501;42.124;24.722;2023-05-31T13:02:00;5.97;;;5.20;;
80175;SDS011;69501;42.124;24.722;2023-05-31T13:04:27;7.30;;;5.43;;
80175;SDS011;69501;42.124;24.722;2023-05-31T13:06:54;10.07;;;5.47;;
80175;SDS011;69501;42.124;24.722;2023-05-31T13:09:22;6.60;;;5.22;;
80175;SDS011;69501;42.124;24.722;2023-05-31T13:11:48;9.30;;;5.50;;
80175;SDS011;69501;42.124;24.722;2023-05-31T13:14:16;7.25;;;4.63;;
80175;SDS011;69501;42.124;24.722;2023-05-31T13:16:45;5.85;;;5.35;;
80175;SDS011;69501;42.124;24.722;2023-05-31T13:19:11;5.47;;;4.97;;
80175;SDS011;69501;42.124;24.722;2023-05-31T13:21:37;5.63;;;4.82;;
80175;SDS011;69501;42.124;24.722;2023-05-31T13:24:04;6.07;;;5.43;;
80175;SDS011;69501;42.124;24.722;2023-05-31T13:26:31;5.25;;;4.78;;
80175;SDS011;69501;42.124;24.722;2023-05-31T13:28:58;5.63;;;5.13;;
80175;SDS011;69501;42.124;24.722;2023-05-31T13:31:25;9.15;;;5.60;;
80175;SDS011;69501;42.124;24.722;2023-05-31T13:33:54;5.75;;;5.35;;
80175;SDS011;69501;42.124;24.722;2023-05-31T13:36:20;9.60;;;5.13;;
80175;SDS011;69501;42.124;24.722;2023-05-31T13:38:47;7.22;;;6.03;;
80175;SDS011;69501;42.124;24.722;2023-05-31T13:41:14;5.03;;;4.63;;
80175;SDS011;69501;42.124;24.722;2023-05-31T13:43:40;7.05;;;5.35;;
80175;SDS011;69501;42.124;24.722;2023-05-31T13:46:06;7.28;;;5.28;;
80175;SDS011;69501;42.124;24.722;2023-05-31T13:48:36;12.43;;;6.25;;
80175;SDS011;69501;42.124;24.722;2023-05-31T13:51:03;6.72;;;5.88;;
80175;SDS011;69501;42.124;24.722;2023-05-31T13:53:29;6.90;;;5.47;;
80175;SDS011;69501;42.124;24.722;2023-05-31T13:55:55;7.25;;;5.50;;
80175;SDS011;69501;42.124;24.722;2023-05-31T13:58:20;6.75;;;5.07;;
80175;SDS011;69501;42.124;24.722;2023-05-31T14:00:46;5.72;;;5.22;;
80175;SDS011;69501;42.124;24.722;2023-05-31T14:03:12;6.68;;;6.00;;
80175;SDS011;69501;42.124;24.722;2023-05-31T14:05:38;6.32;;;5.40;;
80175;SDS011;69501;42.124;24.722;2023-05-31T14:08:04;6.93;;;4.85;;
80175;SDS011;69501;42.124;24.722;2023-05-31T14:10:31;6.55;;;5.30;;
80175;SDS011;69501;42.124;24.722;2023-05-31T14:12:58;6.70;;;5.20;;
80175;SDS011;69501;42.124;24.722;2023-05-31T14:15:23;6.18;;;5.20;;
80175;SDS011;69501;42.124;24.722;2023-05-31T14:17:49;6.70;;;5.03;;
80175;SDS011;69501;42.124;24.722;2023-05-31T14:20:15;7.32;;;4.90;;
80175;SDS011;69501;42.124;24.722;2023-05-31T14:22:40;7.00;;;5.53;;
80175;SDS011;69501;42.124;24.722;2023-05-31T14:25:06;6.82;;;5.20;;
80175;SDS011;69501;42.124;24.722;2023-05-31T14:27:32;8.30;;;4.70;;
80175;SDS011;69501;42.124;24.722;2023-05-31T14:29:58;7.38;;;5.43;;
80175;SDS011;69501;42.124;24.722;2023-05-31T14:32:24;5.70;;;5.20;;
80175;SDS011;69501;42.124;24.722;2023-05-31T14:34:49;6.88;;;5.20;;
80175;SDS011;69501;42.124;24.722;2023-05-31T14:37:15;7.95;;;5.30;;
80175;SDS011;69501;42.124;24.722;2023-05-31T14:39:41;6.93;;;5.05;;
80175;SDS011;69501;42.124;24.722;2023-05-31T14:42:08;6.88;;;5.20;;
80175;SDS011;69501;42.124;24.722;2023-05-31T14:44:34;6.03;;;5.43;;
80175;SDS011;69501;42.124;24.722;2023-05-31T14:47:03;5.32;;;4.88;;
80175;SDS011;69501;42.124;24.722;2023-05-31T14:49:29;8.45;;;5.10;;
80175;SDS011;69501;42.124;24.722;2023-05-31T14:51:55;5.63;;;4.80;;
80175;SDS011;69501;42.124;24.722;2023-05-31T14:54:23;5.70;;;5.20;;
80175;SDS011;69501;42.124;24.722;2023-05-31T14:56:49;6.28;;;5.28;;
80175;SDS011;69501;42.124;24.722;2023-05-31T14:59:17;5.28;;;4.75;;
80175;SDS011;69501;42.124;24.722;2023-05-31T15:01:43;6.78;;;5.20;;
80175;SDS011;69501;42.124;24.722;2023-05-31T15:04:09;6.70;;;5.00;;
80175;SDS011;69501;42.124;24.722;2023-05-31T15:06:36;5.75;;;4.82;;
80175;SDS011;69501;42.124;24.722;2023-05-31T15:09:02;5.88;;;5.25;;